Time;durP1;ratioP1;P1;durP2;ratioP2;P2;SDS_P1;SDS_P2;PMS_P1;PMS_P2;Temp;Humidity;BMP_temperature;BMP_pressure;BME280_temperature;BME280_humidity;BME280_pressure;Samples;Min_cycle;Max_cycle;Signal;HPM_P1;HPM_P2
2022/05/24 00:02:11;;;;;;;8.35;5.80;;;14.20;99.90;;;;;;5048170;28;20049;-82
2022/05/24 00:04:36;;;;;;;9.38;5.55;;;14.20;99.90;;;;;;5048773;28;20041;-83
2022/05/24 00:07:02;;;;;;;9.02;5.38;;;14.20;99.90;;;;;;5031592;28;20029;-83
2022/05/24 00:09:28;;;;;;;8.90;5.63;;;14.20;99.90;;;;;;5048557;28;20033;-83
2022/05/24 00:11:54;;;;;;;10.63;5.70;;;14.20;99.90;;;;;;5050265;28;20033;-84
2022/05/24 00:15:19;;;;;;;8.27;6.47;;;14.20;99.90;;;;;;5051748;28;20510;-84
2022/05/24 00:17:06;;;;;;;11.35;6.43;;;14.20;99.90;;;;;;5049035;28;20059;-83
2022/05/24 00:19:33;;;;;;;11.18;6.35;;;14.10;99.90;;;;;;5051881;28;20112;-83
2022/05/24 00:21:58;;;;;;;;;;;14.10;99.90;;;;;;5052297;28;20067;-83
2022/05/24 00:24:24;;;;;;;8.77;6.20;;;14.10;99.90;;;;;;5034885;28;19920;-84
2022/05/24 00:26:50;;;;;;;9.68;5.90;;;14.10;99.90;;;;;;5035286;28;20036;-83
2022/05/24 00:29:15;;;;;;;9.38;6.20;;;14.00;99.90;;;;;;5051321;28;20087;-83
2022/05/24 00:31:42;;;;;;;10.70;6.78;;;14.00;99.90;;;;;;5052370;28;20095;-84
2022/05/24 00:34:08;;;;;;;12.15;7.20;;;13.90;99.90;;;;;;5051453;28;20124;-82
2022/05/24 00:36:34;;;;;;;7.82;5.82;;;13.90;99.90;;;;;;5052142;28;20136;-84
2022/05/24 00:39:00;;;;;;;10.77;6.50;;;14.00;99.90;;;;;;5051419;28;20045;-83
2022/05/24 00:41:36;;;;;;;11.05;6.60;;;14.00;99.90;;;;;;5051606;28;20044;-84
2022/05/24 00:44:14;;;;;;;9.77;6.70;;;13.90;99.90;;;;;;5034793;28;20505;-82
2022/05/24 00:47:03;;;;;;;10.13;5.88;;;13.80;99.90;;;;;;5051573;28;20033;-82
2022/05/24 00:49:34;;;;;;;9.10;6.10;;;13.70;99.90;;;;;;5034651;28;20029;-83
2022/05/24 00:52:08;;;;;;;8.02;6.07;;;13.80;99.90;;;;;;5034739;28;20040;-83
2022/05/24 00:54:34;;;;;;;12.50;6.03;;;13.60;99.90;;;;;;5051466;28;20043;-83
2022/05/24 00:57:10;;;;;;;7.90;5.60;;;13.60;99.90;;;;;;5051224;28;20041;-83
2022/05/24 01:00:05;;;;;;;6.80;5.35;;;13.60;99.90;;;;;;5034777;28;20052;-84
2022/05/24 01:02:31;;;;;;;9.77;5.85;;;13.50;99.90;;;;;;5048912;28;20049;-83
2022/05/24 01:04:58;;;;;;;9.43;5.40;;;13.30;99.90;;;;;;5051510;28;20081;-84
2022/05/24 01:07:23;;;;;;;;;;;13.30;99.90;;;;;;5034659;28;20087;-84
2022/05/24 01:09:58;;;;;;;9.93;5.72;;;13.20;99.90;;;;;;5051102;28;19925;-84
2022/05/24 01:13:22;;;;;;;6.68;5.45;;;13.20;99.90;;;;;;5051104;28;20033;-83
2022/05/24 01:15:48;;;;;;;10.55;6.05;;;13.20;99.90;;;;;;5009049;28;20370;-83
2022/05/24 01:18:15;;;;;;;7.22;5.80;;;13.10;99.90;;;;;;5050695;28;20036;-83
2022/05/24 01:20:44;;;;;;;10.45;5.93;;;13.10;99.90;;;;;;5051195;28;20377;-83
2022/05/24 01:23:39;;;;;;;11.55;6.47;;;13.00;99.90;;;;;;5030987;28;20490;-83
2022/05/24 01:26:16;;;;;;;9.82;6.40;;;13.00;99.90;;;;;;5013403;28;20455;-84
2022/05/24 01:28:45;;;;;;;9.35;6.28;;;12.90;99.90;;;;;;5050200;28;20057;-84
2022/05/24 01:31:11;;;;;;;10.48;6.07;;;13.00;99.90;;;;;;5050081;28;20053;-83
2022/05/24 01:36:24;;;;;;;10.05;6.70;;;12.90;99.90;;;;;;5050391;28;20043;-83
2022/05/24 01:39:00;;;;;;;10.20;6.30;;;12.90;99.90;;;;;;5050551;28;20044;-84
2022/05/24 01:41:44;;;;;;;9.35;5.65;;;12.80;99.90;;;;;;5049076;28;20044;-84
2022/05/24 01:44:12;;;;;;;11.30;5.93;;;12.80;99.90;;;;;;5050181;28;20103;-84
2022/05/24 01:46:44;;;;;;;11.85;6.95;;;12.80;99.90;;;;;;5050329;28;20041;-83
2022/05/24 01:49:16;;;;;;;11.27;6.47;;;12.80;99.90;;;;;;5050442;28;20429;-83
2022/05/24 01:51:57;;;;;;;10.27;6.95;;;12.80;99.90;;;;;;5050614;28;20041;-84
2022/05/24 01:54:23;;;;;;;9.35;7.15;;;12.80;99.90;;;;;;5048512;28;20497;-84
2022/05/24 01:56:55;;;;;;;11.65;6.85;;;12.60;99.90;;;;;;5050273;28;20044;-83
2022/05/24 01:59:22;;;;;;;11.48;7.45;;;12.60;99.90;;;;;;5030684;28;20044;-83
2022/05/24 02:01:52;;;;;;;11.32;7.47;;;12.60;99.90;;;;;;5050026;28;20040;-83
2022/05/24 02:04:20;;;;;;;13.38;7.95;;;12.60;99.90;;;;;;5033408;28;20086;-84
2022/05/24 02:07:01;;;;;;;14.40;8.30;;;12.60;99.90;;;;;;5050383;28;20443;-84
2022/05/24 02:09:27;;;;;;;12.98;8.70;;;12.60;99.90;;;;;;5049631;28;20033;-83
2022/05/24 02:11:55;;;;;;;12.70;8.75;;;12.70;99.90;;;;;;5033575;28;20067;-84
2022/05/24 02:14:29;;;;;;;12.70;8.02;;;12.70;99.90;;;;;;5049531;28;20116;-84
2022/05/24 02:17:03;;;;;;;13.07;8.13;;;12.70;99.90;;;;;;5049689;28;20107;-84
2022/05/24 02:19:35;;;;;;;11.20;8.30;;;12.70;99.90;;;;;;5049455;28;20072;-84
2022/05/24 02:22:07;;;;;;;12.57;8.40;;;12.70;99.90;;;;;;5049947;28;20497;-84
2022/05/24 02:24:32;;;;;;;12.25;7.57;;;12.80;99.90;;;;;;5047741;28;20033;-84
2022/05/24 02:26:58;;;;;;;13.33;8.33;;;12.80;99.90;;;;;;5049617;28;20417;-84
2022/05/24 02:29:24;;;;;;;13.40;8.73;;;12.80;99.90;;;;;;5046951;28;20291;-84
2022/05/24 02:31:50;;;;;;;12.63;7.53;;;12.80;99.90;;;;;;5049131;28;20041;-83
2022/05/24 02:34:16;;;;;;;16.42;8.98;;;12.90;99.90;;;;;;5048218;28;20047;-83
2022/05/24 02:36:42;;;;;;;14.93;9.00;;;13.00;99.90;;;;;;5048629;28;20116;-84
2022/05/24 02:39:08;;;;;;;10.57;7.72;;;12.90;99.90;;;;;;5048737;28;20488;-83
2022/05/24 02:41:36;;;;;;;12.82;8.23;;;13.00;99.90;;;;;;5048178;28;20094;-84
2022/05/24 02:44:11;;;;;;;10.20;8.27;;;13.10;99.90;;;;;;5030410;28;20041;-83
2022/05/24 02:46:39;;;;;;;12.63;8.77;;;13.10;99.90;;;;;;5048977;28;20060;-83
2022/05/24 02:49:07;;;;;;;10.73;9.10;;;13.10;99.90;;;;;;5049627;28;20437;-84
2022/05/24 02:51:34;;;;;;;17.50;8.95;;;13.20;99.90;;;;;;5032129;28;20033;-84
2022/05/24 02:54:00;;;;;;;;;;;13.20;99.90;;;;;;5049445;28;20048;-84
2022/05/24 02:56:25;;;;;;;12.43;8.30;;;13.20;99.90;;;;;;5048883;28;19994;-83
2022/05/24 02:58:51;;;;;;;12.48;9.05;;;13.20;99.90;;;;;;5049172;28;20489;-84
2022/05/24 03:01:24;;;;;;;11.35;8.68;;;13.20;99.90;;;;;;5049427;28;20072;-84
2022/05/24 03:03:51;;;;;;;14.10;8.30;;;13.20;99.90;;;;;;5032654;28;20125;-84
2022/05/24 03:06:18;;;;;;;14.18;9.43;;;13.20;99.90;;;;;;5049257;28;20036;-84
2022/05/24 03:14:14;;;;;;;14.93;9.68;;;13.40;99.90;;;;;;5048587;28;20125;-83
2022/05/24 03:14:14;;;;;;;17.73;10.65;;;13.30;99.90;;;;;;5047399;28;20033;-84
2022/05/24 03:16:44;;;;;;;17.70;10.73;;;13.40;99.90;;;;;;5048924;28;20047;-84
2022/05/24 03:19:09;;;;;;;15.90;10.85;;;13.40;99.90;;;;;;5048949;28;20132;-84
2022/05/24 03:21:35;;;;;;;19.13;11.90;;;13.50;99.90;;;;;;5048611;28;20076;-83
2022/05/24 03:24:01;;;;;;;16.88;11.80;;;13.50;99.90;;;;;;5048775;28;20362;-84
2022/05/24 03:26:27;;;;;;;17.10;13.00;;;13.40;99.90;;;;;;5032196;28;20488;-84
2022/05/24 03:28:52;;;;;;;17.25;11.85;;;13.50;99.90;;;;;;5048667;28;20048;-84
2022/05/24 03:31:18;;;;;;;19.20;12.80;;;13.50;99.90;;;;;;5016405;28;20140;-84
2022/05/24 03:33:44;;;;;;;19.65;13.85;;;13.50;99.90;;;;;;5016154;28;20041;-84
2022/05/24 03:36:10;;;;;;;23.35;14.70;;;13.50;99.90;;;;;;5032370;28;20111;-84
2022/05/24 03:38:36;;;;;;;22.35;14.80;;;13.60;99.90;;;;;;5049196;28;20045;-84
2022/05/24 03:41:01;;;;;;;25.70;16.58;;;13.60;99.90;;;;;;5048796;28;20041;-83
2022/05/24 03:43:27;;;;;;;25.67;16.67;;;13.60;99.90;;;;;;5048639;28;20035;-83
2022/05/24 03:46:06;;;;;;;24.98;17.15;;;13.70;99.90;;;;;;5049211;28;20050;-84
2022/05/24 03:48:33;;;;;;;28.92;17.52;;;13.70;99.90;;;;;;5052705;28;20534;-83
2022/05/24 03:50:59;;;;;;;;;;;13.70;99.90;;;;;;5050678;28;20120;-83
2022/05/24 03:53:25;;;;;;;31.00;19.55;;;13.60;99.90;;;;;;5052497;28;19995;-82
2022/05/24 03:55:51;;;;;;;;;;;13.60;99.90;;;;;;5052919;28;20094;-82
2022/05/24 03:58:17;;;;;;;33.70;20.42;;;13.60;99.90;;;;;;5052941;28;19992;-82
2022/05/24 04:00:44;;;;;;;31.13;20.02;;;13.60;99.90;;;;;;5052353;28;20553;-83
2022/05/24 04:03:10;;;;;;;30.67;19.08;;;13.60;99.90;;;;;;5052118;28;20037;-82
2022/05/24 04:05:36;;;;;;;26.08;18.00;;;13.60;99.90;;;;;;5052160;28;20113;-84
2022/05/24 04:08:02;;;;;;;27.15;18.55;;;13.70;99.90;;;;;;5052487;28;20032;-84
2022/05/24 04:10:30;;;;;;;31.85;20.38;;;13.70;99.90;;;;;;5018885;28;20424;-81
2022/05/24 04:12:56;;;;;;;32.45;20.58;;;13.70;99.90;;;;;;5050152;28;20120;-81
2022/05/24 04:15:23;;;;;;;34.47;21.38;;;13.70;99.90;;;;;;5035831;28;20129;-83
2022/05/24 04:17:51;;;;;;;31.90;21.13;;;13.70;99.90;;;;;;5052806;28;20037;-83
2022/05/24 04:20:16;;;;;;;32.72;22.10;;;13.70;99.90;;;;;;5052623;28;20047;-83
2022/05/24 04:22:43;;;;;;;35.60;22.05;;;13.80;99.90;;;;;;5035006;28;20045;-81
2022/05/24 04:25:10;;;;;;;33.63;21.75;;;13.70;99.90;;;;;;5052547;28;20044;-81
2022/05/24 04:27:35;;;;;;;;;;;13.70;99.90;;;;;;5052254;28;20029;-82
2022/05/24 04:30:02;;;;;;;31.25;20.35;;;13.70;99.90;;;;;;5018905;28;20392;-81
2022/05/24 04:32:28;;;;;;;30.15;20.15;;;13.70;99.90;;;;;;5051619;28;20047;-80
2022/05/24 04:34:54;;;;;;;33.65;20.35;;;13.70;99.90;;;;;;5035299;28;20112;-82
2022/05/24 04:37:19;;;;;;;29.75;19.95;;;13.70;99.90;;;;;;5052389;28;20094;-81
2022/05/24 04:39:45;;;;;;;23.48;16.98;;;13.80;99.90;;;;;;5051834;28;20044;-81
2022/05/24 04:42:23;;;;;;;28.10;17.70;;;13.80;99.90;;;;;;5051593;28;20063;-81
2022/05/24 04:44:58;;;;;;;24.00;16.25;;;13.80;99.90;;;;;;5051656;28;20091;-82
2022/05/24 04:47:26;;;;;;;26.23;16.30;;;13.80;99.90;;;;;;5033030;28;20045;-83
2022/05/24 04:49:55;;;;;;;26.98;16.50;;;13.80;99.90;;;;;;5051825;28;20075;-82
2022/05/24 04:52:25;;;;;;;26.30;16.55;;;13.80;99.90;;;;;;5035388;28;20095;-82
2022/05/24 04:54:52;;;;;;;27.85;15.48;;;13.80;99.90;;;;;;5050949;28;20037;-83
2022/05/24 04:57:18;;;;;;;;;;;13.80;99.90;;;;;;5050252;28;20037;-83
2022/05/24 04:59:44;;;;;;;23.25;14.88;;;13.90;99.90;;;;;;5049693;28;19966;-83
2022/05/24 05:02:09;;;;;;;21.38;14.02;;;13.90;99.90;;;;;;5050638;28;20566;-83
2022/05/24 05:04:36;;;;;;;23.40;15.00;;;13.90;99.90;;;;;;5033710;28;20032;-83
2022/05/24 05:07:03;;;;;;;19.52;13.50;;;13.90;99.90;;;;;;5050669;28;20036;-84
2022/05/24 05:09:34;;;;;;;22.60;13.90;;;13.90;99.90;;;;;;5017109;28;20102;-82
2022/05/24 05:12:10;;;;;;;20.45;13.00;;;14.00;99.90;;;;;;5050245;28;20067;-83
2022/05/24 05:14:38;;;;;;;22.05;13.73;;;14.00;99.90;;;;;;5033475;28;20086;-84
2022/05/24 05:17:04;;;;;;;20.75;13.90;;;14.10;99.90;;;;;;5034041;28;20444;-83
2022/05/24 05:19:30;;;;;;;23.23;13.52;;;14.10;99.90;;;;;;5050368;28;20096;-83
2022/05/24 05:21:56;;;;;;;22.10;13.38;;;14.10;99.90;;;;;;5050494;28;20397;-83
2022/05/24 05:24:23;;;;;;;19.80;12.90;;;14.10;99.90;;;;;;5050201;28;20070;-82
2022/05/24 05:26:48;;;;;;;25.20;13.68;;;14.10;99.90;;;;;;5049802;28;20119;-83
2022/05/24 05:29:14;;;;;;;16.95;12.20;;;14.10;99.90;;;;;;5049985;28;20192;-83
2022/05/24 05:31:40;;;;;;;19.20;13.10;;;14.10;99.90;;;;;;5033260;28;20041;-83
2022/05/24 05:34:06;;;;;;;18.67;12.35;;;14.10;99.90;;;;;;5049863;28;20049;-83
2022/05/24 05:36:33;;;;;;;22.00;13.02;;;14.20;99.90;;;;;;5049560;28;20045;-83
2022/05/24 05:38:59;;;;;;;18.40;12.52;;;14.30;99.90;;;;;;5049785;28;20076;-83
2022/05/24 05:41:30;;;;;;;23.90;13.63;;;14.30;99.90;;;;;;5033423;28;20075;-83
2022/05/24 05:43:57;;;;;;;20.83;13.55;;;14.30;99.90;;;;;;5049753;28;20106;-84
2022/05/24 05:46:23;;;;;;;21.77;13.98;;;14.30;99.90;;;;;;5050092;28;20474;-83
2022/05/24 05:48:52;;;;;;;21.75;13.98;;;14.30;99.90;;;;;;5033145;28;20086;-83
2022/05/24 05:51:19;;;;;;;18.95;12.45;;;14.20;99.90;;;;;;5049860;28;20034;-83
2022/05/24 05:53:45;;;;;;;19.40;13.40;;;14.20;99.90;;;;;;5049172;28;20260;-83
2022/05/24 05:56:19;;;;;;;23.65;13.85;;;14.20;99.90;;;;;;5049464;28;20036;-82
2022/05/24 05:58:45;;;;;;;25.38;12.70;;;14.30;99.90;;;;;;5032884;28;20048;-81
2022/05/24 06:01:17;;;;;;;19.02;12.07;;;14.20;99.90;;;;;;5049583;28;20485;-80
2022/05/24 06:03:43;;;;;;;19.67;13.75;;;14.20;99.90;;;;;;5048872;28;20037;-81
2022/05/24 06:06:14;;;;;;;22.17;13.75;;;14.20;99.90;;;;;;5016448;28;20043;-80
2022/05/24 06:08:39;;;;;;;18.70;13.40;;;14.00;99.90;;;;;;5049183;28;20362;-81
2022/05/24 06:11:05;;;;;;;23.77;15.07;;;13.90;99.90;;;;;;5049145;28;20048;-82
2022/05/24 06:13:31;;;;;;;26.50;16.08;;;13.90;99.90;;;;;;5049164;28;20066;-81
2022/05/24 06:15:58;;;;;;;23.85;15.68;;;13.80;99.90;;;;;;5049530;28;20092;-82
2022/05/24 06:18:24;;;;;;;26.73;17.05;;;13.80;99.90;;;;;;5049279;28;20045;-82
2022/05/24 06:20:49;;;;;;;28.73;17.47;;;13.80;99.90;;;;;;5032456;28;20053;-82
2022/05/24 06:23:15;;;;;;;31.83;18.03;;;13.90;99.90;;;;;;5049075;28;20354;-83
2022/05/24 06:25:42;;;;;;;32.08;18.35;;;13.90;99.90;;;;;;5030392;28;20342;-82
2022/05/24 06:28:12;;;;;;;28.40;18.42;;;13.90;99.90;;;;;;5049526;28;20048;-81
2022/05/24 06:30:39;;;;;;;36.30;19.65;;;14.00;99.90;;;;;;5033192;28;20123;-82
2022/05/24 06:33:04;;;;;;;30.27;19.70;;;14.00;99.90;;;;;;5033114;28;20095;-81
2022/05/24 06:35:30;;;;;;;33.17;19.20;;;14.00;99.90;;;;;;5049772;28;20049;-82
2022/05/24 06:37:56;;;;;;;31.15;17.65;;;14.00;99.90;;;;;;5033293;28;20045;-82
2022/05/24 06:40:22;;;;;;;29.70;19.08;;;14.00;99.90;;;;;;5050028;28;20075;-82
2022/05/24 06:42:47;;;;;;;37.22;18.75;;;14.00;99.90;;;;;;5049456;28;20045;-82
2022/05/24 06:45:14;;;;;;;31.60;18.02;;;14.00;99.90;;;;;;5052009;28;20067;-79
2022/05/24 06:47:40;;;;;;;31.05;18.63;;;14.10;99.90;;;;;;5023811;28;20093;-83
2022/05/24 06:50:07;;;;;;;25.45;17.10;;;14.10;99.90;;;;;;5048755;28;20540;-82
2022/05/24 06:52:33;;;;;;;31.15;16.27;;;14.10;99.90;;;;;;5032617;28;20072;-82
2022/05/24 06:54:59;;;;;;;25.08;15.75;;;14.10;99.90;;;;;;5021238;28;20395;-81
2022/05/24 06:57:25;;;;;;;23.08;14.23;;;14.10;99.90;;;;;;5032637;28;20033;-82
2022/05/24 07:02:35;;;;;;;22.23;13.82;;;14.20;99.90;;;;;;5048692;28;20049;-83
2022/05/24 07:05:10;;;;;;;22.77;14.30;;;14.20;99.90;;;;;;5049653;28;20067;-83
2022/05/24 07:07:37;;;;;;;21.88;13.63;;;14.10;99.90;;;;;;5053901;28;20075;-82
2022/05/24 07:10:06;;;;;;;18.67;12.45;;;14.20;99.90;;;;;;5049526;28;20041;-83
2022/05/24 07:12:33;;;;;;;20.40;12.80;;;14.20;99.90;;;;;;5032779;28;20109;-83
2022/05/24 07:14:59;;;;;;;16.35;10.23;;;14.40;99.90;;;;;;5048700;28;20068;-83
2022/05/24 07:17:25;;;;;;;13.55;8.32;;;14.60;99.90;;;;;;5032711;28;20029;-82
2022/05/24 07:19:52;;;;;;;11.73;7.53;;;14.70;99.90;;;;;;5032399;28;20570;-82
2022/05/24 07:22:18;;;;;;;11.18;7.82;;;14.80;99.90;;;;;;5052413;28;20477;-82
2022/05/24 07:24:48;;;;;;;17.67;8.63;;;14.90;99.90;;;;;;5052976;28;20130;-82
2022/05/24 07:27:16;;;;;;;11.88;7.95;;;15.00;99.90;;;;;;5036826;28;20111;-83
2022/05/24 07:29:42;;;;;;;14.00;7.65;;;15.00;99.90;;;;;;5036530;28;20489;-83
2022/05/24 07:32:08;;;;;;;15.40;7.28;;;15.00;99.90;;;;;;5053064;28;20070;-83
2022/05/24 07:34:35;;;;;;;14.93;5.90;;;15.10;99.90;;;;;;5036790;28;20044;-82
2022/05/24 07:37:03;;;;;;;13.82;6.50;;;15.00;99.90;;;;;;5052692;28;20041;-82
2022/05/24 07:39:29;;;;;;;10.55;4.93;;;14.90;99.90;;;;;;5036862;28;20088;-82
2022/05/24 07:47:15;;;;;;;10.80;5.00;;;14.60;99.90;;;;;;5056457;28;20041;-82
2022/05/24 07:49:41;;;;;;;9.82;5.00;;;14.60;99.90;;;;;;5036097;28;20044;-82
2022/05/24 07:52:07;;;;;;;10.20;5.53;;;14.40;99.90;;;;;;5036153;28;20045;-81
2022/05/24 07:54:33;;;;;;;10.07;5.55;;;14.30;99.90;;;;;;5035898;28;20547;-82
2022/05/24 07:57:00;;;;;;;9.90;5.55;;;14.30;99.90;;;;;;5051729;28;20047;-82
2022/05/24 07:59:26;;;;;;;18.67;7.70;;;14.30;99.90;;;;;;5056292;28;20047;-82
2022/05/24 08:01:52;;;;;;;12.73;7.30;;;14.30;99.90;;;;;;5052261;28;20127;-81
2022/05/24 08:04:19;;;;;;;11.23;6.90;;;14.20;99.90;;;;;;5035410;28;20045;-81
2022/05/24 08:06:45;;;;;;;11.82;6.55;;;14.10;99.90;;;;;;5051877;28;20036;-80
2022/05/24 08:09:10;;;;;;;8.32;4.88;;;14.00;99.90;;;;;;5051905;28;20059;-82
2022/05/24 08:11:36;;;;;;;7.38;4.53;;;13.70;99.90;;;;;;5052705;28;20060;-82
2022/05/24 08:14:02;;;;;;;9.32;5.20;;;13.50;99.90;;;;;;5035608;28;20040;-82
2022/05/24 08:16:32;;;;;;;;;;;13.30;99.90;;;;;;5052830;28;20048;-82
2022/05/24 08:19:02;;;;;;;15.15;7.25;;;13.30;99.90;;;;;;5052460;28;19949;-82
2022/05/24 08:21:29;;;;;;;12.10;6.95;;;13.20;99.90;;;;;;5035861;28;20041;-82
2022/05/24 08:23:55;;;;;;;14.10;8.30;;;13.20;99.90;;;;;;5035363;28;20079;-82
2022/05/24 08:26:21;;;;;;;15.10;8.70;;;13.20;99.90;;;;;;5051823;28;20501;-83
2022/05/24 08:28:47;;;;;;;13.88;8.32;;;13.20;99.90;;;;;;5038318;28;20496;-82
2022/05/24 08:31:15;;;;;;;12.82;7.93;;;13.30;99.90;;;;;;5055340;28;20047;-83
2022/05/24 08:33:42;;;;;;;15.10;8.93;;;13.30;99.90;;;;;;5038272;28;20129;-83
2022/05/24 08:36:09;;;;;;;13.60;9.27;;;13.40;99.90;;;;;;5056909;28;20067;-82
2022/05/24 08:38:36;;;;;;;13.35;9.23;;;13.50;99.90;;;;;;5058127;28;20421;-82
2022/05/24 08:41:03;;;;;;;;;;;13.70;99.90;;;;;;5054918;28;20048;-81
2022/05/24 08:43:34;;;;;;;14.82;9.82;;;13.80;99.90;;;;;;5058349;28;19924;-81
2022/05/24 08:48:54;;;;;;;13.68;8.82;;;14.20;99.90;;;;;;5054844;28;20112;-82
2022/05/24 08:51:54;;;;;;;14.25;9.25;;;14.60;99.90;;;;;;5060333;28;20499;-79
2022/05/24 08:54:47;;;;;;;14.38;8.27;;;14.80;99.90;;;;;;5048346;28;20037;-81
2022/05/24 08:57:34;;;;;;;12.65;6.80;;;14.90;99.90;;;;;;5062354;28;20579;-81
2022/05/24 09:00:10;;;;;;;12.40;7.57;;;15.20;99.90;;;;;;5040440;28;20040;-82
2022/05/24 09:02:44;;;;;;;11.98;7.30;;;15.40;99.90;;;;;;5054804;28;20472;-82
2022/05/24 09:05:23;;;;;;;14.63;9.48;;;15.40;99.90;;;;;;5056280;28;20033;-81
2022/05/24 09:08:31;;;;;;;15.48;10.18;;;15.30;99.90;;;;;;5064645;28;20046;-80
2022/05/24 09:11:15;;;;;;;13.43;8.47;;;15.20;99.90;;;;;;4960935;28;20042;-81
2022/05/24 09:13:47;;;;;;;15.20;9.48;;;15.20;99.90;;;;;;5046495;28;20106;-83
2022/05/24 09:16:15;;;;;;;15.18;9.70;;;15.00;99.90;;;;;;5054361;28;20032;-82
2022/05/24 09:18:41;;;;;;;16.10;10.10;;;15.00;99.90;;;;;;5059874;28;20392;-83
2022/05/24 09:21:26;;;;;;;19.35;10.40;;;15.00;99.90;;;;;;5037069;28;20062;-83
2022/05/24 09:24:37;;;;;;;17.17;9.88;;;15.00;99.90;;;;;;5053952;28;20044;-83
2022/05/24 09:27:51;;;;;;;15.65;9.63;;;15.00;99.90;;;;;;5050134;28;20565;-81
2022/05/24 09:30:32;;;;;;;14.40;8.77;;;15.00;99.90;;;;;;5002198;28;20392;-82
2022/05/24 09:33:30;;;;;;;7.97;6.22;;;14.80;99.90;;;;;;5040926;28;20071;-81
2022/05/24 09:35:58;;;;;;;;;;;14.40;99.90;;;;;;5038946;28;20515;-82
2022/05/24 09:38:38;;;;;;;5.38;3.78;;;14.20;99.90;;;;;;5053706;28;19916;-82
2022/05/24 09:41:24;;;;;;;6.18;3.22;;;14.10;99.90;;;;;;5053196;28;20039;-81
2022/05/24 09:44:00;;;;;;;4.20;3.38;;;14.00;99.90;;;;;;5053060;28;20047;-82
2022/05/24 09:46:27;;;;;;;4.78;3.08;;;14.00;99.90;;;;;;5037200;28;20047;-83
2022/05/24 09:49:24;;;;;;;5.90;3.00;;;14.10;99.90;;;;;;5037155;28;20431;-83
2022/05/24 09:51:55;;;;;;;4.22;2.33;;;14.10;99.90;;;;;;5036185;28;20469;-83
2022/05/24 09:54:27;;;;;;;4.57;2.53;;;14.10;99.90;;;;;;5053621;28;20039;-82
2022/05/24 09:57:02;;;;;;;4.55;2.30;;;14.20;99.90;;;;;;5053113;28;20059;-82
2022/05/24 09:59:28;;;;;;;2.50;1.90;;;14.30;99.90;;;;;;5062443;28;20090;-82
2022/05/24 10:01:54;;;;;;;3.65;2.33;;;14.50;99.90;;;;;;5053151;28;20040;-82
2022/05/24 10:04:32;;;;;;;2.33;1.80;;;14.50;99.90;;;;;;5053286;28;20131;-82
2022/05/24 10:07:01;;;;;;;3.08;2.30;;;14.60;99.90;;;;;;5052946;28;20040;-82
2022/05/24 10:09:58;;;;;;;3.85;2.20;;;14.60;99.90;;;;;;5053630;28;20028;-82
2022/05/24 10:12:34;;;;;;;4.95;2.05;;;14.60;99.90;;;;;;5053355;28;20477;-82
2022/05/24 10:15:08;;;;;;;2.80;1.70;;;15.10;99.90;;;;;;5053796;28;20568;-82
2022/05/24 10:18:05;;;;;;;2.78;1.60;;;15.50;99.90;;;;;;5053679;28;20037;-82
2022/05/24 10:20:37;;;;;;;6.93;2.17;;;15.80;99.90;;;;;;5053018;28;20035;-82
2022/05/24 10:23:46;;;;;;;5.55;2.42;;;15.70;99.90;;;;;;5052920;28;20048;-83
2022/05/24 10:26:16;;;;;;;3.28;1.52;;;15.60;99.90;;;;;;5031729;28;20060;-83
2022/05/24 10:28:51;;;;;;;2.45;1.67;;;15.60;99.90;;;;;;5036738;28;20555;-82
2022/05/24 10:31:46;;;;;;;4.03;1.70;;;15.50;99.90;;;;;;5037039;28;20032;-82
2022/05/24 10:40:34;;;;;;;4.05;2.40;;;15.20;99.90;;;;;;5053068;28;20071;-82
2022/05/24 10:43:37;;;;;;;6.28;2.88;;;14.80;99.90;;;;;;5052170;28;20073;-82
2022/05/24 10:46:13;;;;;;;4.15;2.53;;;14.50;99.90;;;;;;5052235;28;20076;-81
2022/05/24 10:48:59;;;;;;;9.02;3.30;;;14.40;99.90;;;;;;5039501;28;20032;-82
2022/05/24 10:51:56;;;;;;;3.88;2.20;;;14.30;99.90;;;;;;5052315;28;20039;-81
2022/05/24 10:55:17;;;;;;;3.22;2.00;;;14.20;99.90;;;;;;5036425;28;20039;-82
2022/05/24 10:57:53;;;;;;;5.45;2.33;;;14.20;99.90;;;;;;4969607;28;20073;-82
2022/05/24 11:00:34;;;;;;;7.75;2.75;;;14.60;99.90;;;;;;4938226;28;20117;-82
2022/05/24 11:03:10;;;;;;;3.95;2.40;;;15.10;99.90;;;;;;5028275;28;20052;-81
2022/05/24 11:05:41;;;;;;;3.80;2.60;;;15.50;99.90;;;;;;5052942;28;20041;-83
2022/05/24 11:08:30;;;;;;;6.18;2.55;;;15.50;99.90;;;;;;5056068;28;20043;-81
2022/05/24 11:11:00;;;;;;;4.05;1.85;;;15.40;99.90;;;;;;5015219;28;20048;-82
2022/05/24 11:13:40;;;;;;;4.47;1.58;;;15.00;99.90;;;;;;5052627;28;20456;-82
2022/05/24 11:16:19;;;;;;;3.28;1.77;;;14.70;99.90;;;;;;5052018;28;20106;-81
2022/05/24 11:18:45;;;;;;;4.90;2.10;;;14.50;99.90;;;;;;5035638;28;20032;-82
2022/05/24 11:21:46;;;;;;;3.30;2.00;;;14.50;99.90;;;;;;5051977;28;20047;-82
2022/05/24 11:24:24;;;;;;;3.95;2.50;;;14.60;99.90;;;;;;5024969;28;20060;-82
2022/05/24 11:26:54;;;;;;;6.45;3.20;;;14.80;99.90;;;;;;5052293;28;20074;-82
2022/05/24 11:29:45;;;;;;;3.08;1.77;;;14.70;99.90;;;;;;5052271;28;20052;-82
2022/05/24 11:32:17;;;;;;;2.20;1.38;;;14.80;99.90;;;;;;5052311;28;20091;-82
2022/05/24 11:34:58;;;;;;;2.90;0.90;;;14.90;99.90;;;;;;5052439;28;20080;-82
2022/05/24 11:37:36;;;;;;;1.10;0.80;;;14.90;99.90;;;;;;5051466;28;20067;-82
2022/05/24 11:40:24;;;;;;;3.15;1.10;;;15.10;99.90;;;;;;5038813;28;20496;-81
2022/05/24 11:42:50;;;;;;;;;;;15.30;99.90;;;;;;5060931;28;20391;-80
2022/05/24 11:45:34;;;;;;;2.42;0.98;;;15.70;99.90;;;;;;5059552;28;20006;-81
2022/05/24 11:48:00;;;;;;;2.10;1.10;;;16.20;99.90;;;;;;5051754;28;20067;-82
2022/05/24 11:50:31;;;;;;;1.85;1.30;;;16.70;99.90;;;;;;5052382;28;20040;-81
2022/05/24 11:53:11;;;;;;;1.88;1.27;;;17.10;99.90;;;;;;5035398;28;20040;-82
2022/05/24 11:55:53;;;;;;;3.03;1.52;;;17.20;99.90;;;;;;5035411;28;20041;-82
2022/05/24 11:58:24;;;;;;;3.92;1.40;;;17.20;99.90;;;;;;5051934;28;20048;-82
2022/05/24 12:01:16;;;;;;;4.22;1.20;;;17.00;99.90;;;;;;5054999;28;20056;-82
2022/05/24 12:10:04;;;;;;;4.93;0.90;;;17.50;99.90;;;;;;5059684;28;20403;-83
2022/05/24 12:12:44;;;;;;;3.70;1.13;;;17.80;99.90;;;;;;5048264;28;20042;-83
2022/05/24 12:15:47;;;;;;;4.18;0.85;;;17.60;99.90;;;;;;5055289;28;20123;-83
2022/05/24 12:18:38;;;;;;;1.98;0.63;;;17.20;99.90;;;;;;5037693;28;20123;-83
2022/05/24 12:21:04;;;;;;;5.72;0.93;;;16.50;99.90;;;;;;5040846;28;20036;-83
2022/05/24 12:23:29;;;;;;;1.67;0.75;;;16.30;99.90;;;;;;5055093;28;20503;-83
2022/05/24 12:25:58;;;;;;;2.60;0.90;;;16.30;99.90;;;;;;5057783;28;20040;-82
2022/05/24 12:28:48;;;;;;;4.22;0.93;;;16.50;99.90;;;;;;5042016;28;20090;-83
2022/05/24 12:31:25;;;;;;;1.45;0.88;;;16.80;99.90;;;;;;5030554;28;20052;-83
2022/05/24 12:34:03;;;;;;;3.70;0.70;;;17.00;99.90;;;;;;5055013;28;20051;-83
2022/05/24 12:36:34;;;;;;;1.95;0.90;;;16.90;99.90;;;;;;5038670;28;20040;-82
2022/05/24 12:39:12;;;;;;;2.50;0.77;;;16.60;99.90;;;;;;5055188;28;20548;-83
2022/05/24 12:41:55;;;;;;;3.35;1.17;;;16.50;99.90;;;;;;5059007;28;20453;-82
2022/05/24 12:44:22;;;;;;;3.83;1.20;;;16.00;99.90;;;;;;5053334;28;20695;-83
2022/05/24 12:47:06;;;;;;;4.88;1.50;;;15.80;99.90;;;;;;5038825;28;20032;-82
2022/05/24 12:49:50;;;;;;;3.33;1.13;;;15.90;99.90;;;;;;5055224;28;20039;-83
2022/05/24 12:52:25;;;;;;;4.53;1.30;;;16.20;99.90;;;;;;5038067;28;20040;-83
2022/05/24 12:54:53;;;;;;;3.15;1.10;;;16.70;99.90;;;;;;5055280;28;20443;-83
2022/05/24 12:57:32;;;;;;;4.85;1.10;;;17.20;99.90;;;;;;5054459;28;20036;-83
2022/05/24 13:00:01;;;;;;;2.03;1.17;;;17.40;99.90;;;;;;5054752;28;20071;-82
2022/05/24 13:02:45;;;;;;;3.55;1.10;;;17.60;99.90;;;;;;5055047;28;20036;-83
2022/05/24 13:05:16;;;;;;;2.45;0.85;;;17.90;99.90;;;;;;5054418;28;20125;-83
2022/05/24 13:07:54;;;;;;;2.35;0.85;;;18.10;99.90;;;;;;5038430;28;20037;-83
2022/05/24 13:10:26;;;;;;;2.22;0.70;;;18.20;99.90;;;;;;5055379;28;20043;-81
2022/05/24 13:12:51;;;;;;;4.32;0.70;;;18.40;99.90;;;;;;5058680;28;20044;-82
2022/05/24 13:15:21;;;;;;;1.77;0.60;;;18.40;99.90;;;;;;5037805;28;20484;-83
2022/05/24 13:17:54;;;;;;;2.67;0.70;;;18.20;99.90;;;;;;5058589;28;20060;-81
2022/05/24 13:20:20;;;;;;;1.88;0.52;;;18.00;99.90;;;;;;5051349;28;20392;-81
2022/05/24 13:22:57;;;;;;;2.88;0.50;;;17.80;99.90;;;;;;5054310;28;20047;-82
2022/05/24 13:25:26;;;;;;;2.30;0.40;;;17.80;99.90;;;;;;5054354;28;20548;-82
2022/05/24 13:28:03;;;;;;;2.20;0.70;;;17.70;99.90;;;;;;5054551;28;20032;-83
2022/05/24 13:33:46;;;;;;;4.60;1.15;;;17.40;99.90;;;;;;5030367;28;20036;-83
2022/05/24 13:36:22;;;;;;;2.53;0.70;;;17.40;99.90;;;;;;5050503;28;20045;-83
2022/05/24 13:39:03;;;;;;;2.40;0.90;;;17.20;99.90;;;;;;5055759;28;20475;-83